sensor_id;sensor_type;location;lat;lon;timestamp;P1;durP1;ratioP1;P2;durP2;ratioP2
13704;SDS011;6924;52.122;9.952;2024-02-04T00:01:56;3.93;;;2.80;;
13704;SDS011;6924;52.122;9.952;2024-02-04T00:04:23;4.37;;;2.53;;
13704;SDS011;6924;52.122;9.952;2024-02-04T00:06:49;2.83;;;2.40;;
13704;SDS011;6924;52.122;9.952;2024-02-04T00:09:15;2.37;;;2.17;;
13704;SDS011;6924;52.122;9.952;2024-02-04T00:11:43;4.20;;;2.43;;
13704;SDS011;6924;52.122;9.952;2024-02-04T00:14:10;3.57;;;2.57;;
13704;SDS011;6924;52.122;9.952;2024-02-04T00:16:36;3.20;;;2.53;;
13704;SDS011;6924;52.122;9.952;2024-02-04T00:19:04;4.80;;;2.50;;
13704;SDS011;6924;52.122;9.952;2024-02-04T00:21:30;3.50;;;3.20;;
13704;SDS011;6924;52.122;9.952;2024-02-04T00:23:56;4.77;;;2.90;;
13704;SDS011;6924;52.122;9.952;2024-02-04T00:26:23;4.10;;;3.37;;
13704;SDS011;6924;52.122;9.952;2024-02-04T00:28:49;3.73;;;3.30;;
13704;SDS011;6924;52.122;9.952;2024-02-04T00:31:15;3.53;;;3.23;;
13704;SDS011;6924;52.122;9.952;2024-02-04T00:33:42;3.60;;;3.30;;
13704;SDS011;6924;52.122;9.952;2024-02-04T00:36:09;5.40;;;3.90;;
13704;SDS011;6924;52.122;9.952;2024-02-04T00:38:36;7.40;;;4.20;;
13704;SDS011;6924;52.122;9.952;2024-02-04T00:41:02;5.03;;;4.10;;
13704;SDS011;6924;52.122;9.952;2024-02-04T00:43:30;4.77;;;4.27;;
13704;SDS011;6924;52.122;9.952;2024-02-04T00:45:57;4.83;;;4.27;;
13704;SDS011;6924;52.122;9.952;2024-02-04T00:48:25;5.03;;;4.53;;
13704;SDS011;6924;52.122;9.952;2024-02-04T00:50:51;5.43;;;4.30;;
13704;SDS011;6924;52.122;9.952;2024-02-04T00:53:19;5.17;;;4.00;;
13704;SDS011;6924;52.122;9.952;2024-02-04T00:55:45;5.17;;;4.67;;
13704;SDS011;6924;52.122;9.952;2024-02-04T00:58:12;5.30;;;4.80;;
13704;SDS011;6924;52.122;9.952;2024-02-04T01:00:38;7.83;;;5.47;;
13704;SDS011;6924;52.122;9.952;2024-02-04T01:03:04;5.97;;;5.10;;
13704;SDS011;6924;52.122;9.952;2024-02-04T01:05:31;5.83;;;4.67;;
13704;SDS011;6924;52.122;9.952;2024-02-04T01:07:57;8.17;;;4.93;;
13704;SDS011;6924;52.122;9.952;2024-02-04T01:10:26;5.90;;;5.30;;
13704;SDS011;6924;52.122;9.952;2024-02-04T01:12:52;4.87;;;4.43;;
13704;SDS011;6924;52.122;9.952;2024-02-04T01:15:18;6.67;;;4.83;;
13704;SDS011;6924;52.122;9.952;2024-02-04T01:17:45;7.03;;;4.47;;
13704;SDS011;6924;52.122;9.952;2024-02-04T01:20:11;6.07;;;5.00;;
13704;SDS011;6924;52.122;9.952;2024-02-04T01:22:38;8.20;;;4.83;;
13704;SDS011;6924;52.122;9.952;2024-02-04T01:25:04;5.70;;;5.10;;
13704;SDS011;6924;52.122;9.952;2024-02-04T01:27:33;8.70;;;4.90;;
13704;SDS011;6924;52.122;9.952;2024-02-04T01:29:59;5.83;;;4.97;;
13704;SDS011;6924;52.122;9.952;2024-02-04T01:32:26;5.27;;;4.77;;
13704;SDS011;6924;52.122;9.952;2024-02-04T01:34:52;4.67;;;4.27;;
13704;SDS011;6924;52.122;9.952;2024-02-04T01:37:18;6.87;;;4.80;;
13704;SDS011;6924;52.122;9.952;2024-02-04T01:39:45;4.57;;;4.17;;
13704;SDS011;6924;52.122;9.952;2024-02-04T01:42:12;5.63;;;4.93;;
13704;SDS011;6924;52.122;9.952;2024-02-04T01:44:40;5.87;;;4.10;;
13704;SDS011;6924;52.122;9.952;2024-02-04T01:47:07;7.40;;;4.67;;
13704;SDS011;6924;52.122;9.952;2024-02-04T01:49:34;6.17;;;5.07;;
13704;SDS011;6924;52.122;9.952;2024-02-04T01:52:00;6.10;;;5.60;;
13704;SDS011;6924;52.122;9.952;2024-02-04T01:54:28;5.93;;;5.23;;
13704;SDS011;6924;52.122;9.952;2024-02-04T01:56:58;5.63;;;5.13;;
13704;SDS011;6924;52.122;9.952;2024-02-04T01:59:26;5.77;;;5.13;;
13704;SDS011;6924;52.122;9.952;2024-02-04T02:01:57;8.93;;;5.87;;
13704;SDS011;6924;52.122;9.952;2024-02-04T02:04:25;6.73;;;5.93;;
13704;SDS011;6924;52.122;9.952;2024-02-04T02:06:52;7.93;;;6.20;;
13704;SDS011;6924;52.122;9.952;2024-02-04T02:09:19;10.10;;;6.67;;
13704;SDS011;6924;52.122;9.952;2024-02-04T02:11:47;7.17;;;6.00;;
13704;SDS011;6924;52.122;9.952;2024-02-04T02:14:18;6.60;;;5.20;;
13704;SDS011;6924;52.122;9.952;2024-02-04T02:16:49;9.87;;;5.83;;
13704;SDS011;6924;52.122;9.952;2024-02-04T02:19:22;5.67;;;5.20;;
13704;SDS011;6924;52.122;9.952;2024-02-04T02:22:04;6.67;;;5.70;;
13704;SDS011;6924;52.122;9.952;2024-02-04T02:24:42;6.43;;;5.83;;
13704;SDS011;6924;52.122;9.952;2024-02-04T02:27:09;7.00;;;5.67;;
13704;SDS011;6924;52.122;9.952;2024-02-04T02:29:36;8.23;;;5.13;;
13704;SDS011;6924;52.122;9.952;2024-02-04T02:32:02;8.77;;;5.83;;
13704;SDS011;6924;52.122;9.952;2024-02-04T02:34:29;6.30;;;5.70;;
13704;SDS011;6924;52.122;9.952;2024-02-04T02:36:57;7.30;;;5.03;;
13704;SDS011;6924;52.122;9.952;2024-02-04T02:39:30;6.80;;;6.10;;
13704;SDS011;6924;52.122;9.952;2024-02-04T02:42:01;6.23;;;5.07;;
13704;SDS011;6924;52.122;9.952;2024-02-04T02:44:30;5.90;;;5.30;;
13704;SDS011;6924;52.122;9.952;2024-02-04T02:46:59;10.33;;;5.80;;
13704;SDS011;6924;52.122;9.952;2024-02-04T02:49:28;7.47;;;4.90;;
13704;SDS011;6924;52.122;9.952;2024-02-04T02:51:54;5.27;;;4.87;;
13704;SDS011;6924;52.122;9.952;2024-02-04T02:54:21;8.53;;;5.07;;
13704;SDS011;6924;52.122;9.952;2024-02-04T02:56:47;5.57;;;4.10;;
13704;SDS011;6924;52.122;9.952;2024-02-04T02:59:15;5.23;;;4.73;;
13704;SDS011;6924;52.122;9.952;2024-02-04T03:01:41;6.07;;;5.37;;
13704;SDS011;6924;52.122;9.952;2024-02-04T03:04:08;5.63;;;4.67;;
13704;SDS011;6924;52.122;9.952;2024-02-04T03:06:34;4.53;;;4.20;;
13704;SDS011;6924;52.122;9.952;2024-02-04T03:09:01;6.80;;;5.50;;
13704;SDS011;6924;52.122;9.952;2024-02-04T03:11:27;8.40;;;4.77;;
13704;SDS011;6924;52.122;9.952;2024-02-04T03:13:54;7.60;;;4.37;;
13704;SDS011;6924;52.122;9.952;2024-02-04T03:16:21;5.07;;;4.57;;
13704;SDS011;6924;52.122;9.952;2024-02-04T03:18:48;4.90;;;4.40;;
13704;SDS011;6924;52.122;9.952;2024-02-04T03:21:14;5.30;;;4.67;;
13704;SDS011;6924;52.122;9.952;2024-02-04T03:23:42;5.50;;;4.73;;
13704;SDS011;6924;52.122;9.952;2024-02-04T03:26:09;5.10;;;4.63;;
13704;SDS011;6924;52.122;9.952;2024-02-04T03:28:35;6.27;;;4.73;;
13704;SDS011;6924;52.122;9.952;2024-02-04T03:31:02;5.37;;;4.87;;
13704;SDS011;6924;52.122;9.952;2024-02-04T03:33:30;7.60;;;4.40;;
13704;SDS011;6924;52.122;9.952;2024-02-04T03:35:56;7.63;;;4.23;;
13704;SDS011;6924;52.122;9.952;2024-02-04T03:38:23;5.80;;;4.80;;
13704;SDS011;6924;52.122;9.952;2024-02-04T03:40:49;6.47;;;4.53;;
13704;SDS011;6924;52.122;9.952;2024-02-04T03:43:15;5.90;;;4.90;;
13704;SDS011;6924;52.122;9.952;2024-02-04T03:45:42;4.70;;;4.30;;
13704;SDS011;6924;52.122;9.952;2024-02-04T03:48:08;6.73;;;4.40;;
13704;SDS011;6924;52.122;9.952;2024-02-04T03:50:36;5.50;;;5.00;;
13704;SDS011;6924;52.122;9.952;2024-02-04T03:53:03;7.27;;;5.30;;
13704;SDS011;6924;52.122;9.952;2024-02-04T03:55:29;5.20;;;4.03;;
13704;SDS011;6924;52.122;9.952;2024-02-04T03:57:56;5.77;;;4.67;;
13704;SDS011;6924;52.122;9.952;2024-02-04T04:00:23;7.20;;;4.23;;
13704;SDS011;6924;52.122;9.952;2024-02-04T04:02:49;5.07;;;4.30;;
13704;SDS011;6924;52.122;9.952;2024-02-04T04:05:15;7.43;;;4.03;;
13704;SDS011;6924;52.122;9.952;2024-02-04T04:07:43;5.83;;;4.00;;
13704;SDS011;6924;52.122;9.952;2024-02-04T04:10:10;3.63;;;3.30;;
13704;SDS011;6924;52.122;9.952;2024-02-04T04:12:36;5.40;;;4.50;;
13704;SDS011;6924;52.122;9.952;2024-02-04T04:15:03;4.83;;;3.97;;
13704;SDS011;6924;52.122;9.952;2024-02-04T04:17:30;5.63;;;4.07;;
13704;SDS011;6924;52.122;9.952;2024-02-04T04:19:56;4.00;;;3.60;;
13704;SDS011;6924;52.122;9.952;2024-02-04T04:22:22;2.93;;;2.73;;
13704;SDS011;6924;52.122;9.952;2024-02-04T04:24:50;4.90;;;4.30;;
13704;SDS011;6924;52.122;9.952;2024-02-04T04:27:16;4.20;;;3.80;;
13704;SDS011;6924;52.122;9.952;2024-02-04T04:29:43;5.37;;;4.03;;
13704;SDS011;6924;52.122;9.952;2024-02-04T04:32:09;6.50;;;3.30;;
13704;SDS011;6924;52.122;9.952;2024-02-04T04:34:35;3.93;;;3.53;;
13704;SDS011;6924;52.122;9.952;2024-02-04T04:37:02;4.57;;;3.97;;
13704;SDS011;6924;52.122;9.952;2024-02-04T04:39:28;3.73;;;3.40;;
13704;SDS011;6924;52.122;9.952;2024-02-04T04:41:56;4.03;;;3.33;;
13704;SDS011;6924;52.122;9.952;2024-02-04T04:44:22;3.50;;;3.20;;
13704;SDS011;6924;52.122;9.952;2024-02-04T04:46:49;4.00;;;3.60;;
13704;SDS011;6924;52.122;9.952;2024-02-04T04:49:15;7.17;;;3.20;;
13704;SDS011;6924;52.122;9.952;2024-02-04T04:51:43;3.97;;;3.40;;
13704;SDS011;6924;52.122;9.952;2024-02-04T04:54:10;6.93;;;3.90;;
13704;SDS011;6924;52.122;9.952;2024-02-04T04:56:37;6.30;;;2.80;;
13704;SDS011;6924;52.122;9.952;2024-02-04T04:59:05;3.87;;;3.47;;
13704;SDS011;6924;52.122;9.952;2024-02-04T05:01:32;3.83;;;2.63;;
13704;SDS011;6924;52.122;9.952;2024-02-04T05:03:58;3.57;;;2.40;;
13704;SDS011;6924;52.122;9.952;2024-02-04T05:06:26;2.73;;;2.43;;
13704;SDS011;6924;52.122;9.952;2024-02-04T05:08:52;2.67;;;2.47;;
13704;SDS011;6924;52.122;9.952;2024-02-04T05:11:19;2.17;;;1.97;;
13704;SDS011;6924;52.122;9.952;2024-02-04T05:13:45;1.80;;;1.57;;
13704;SDS011;6924;52.122;9.952;2024-02-04T05:16:13;2.20;;;1.90;;
13704;SDS011;6924;52.122;9.952;2024-02-04T05:18:39;1.50;;;1.40;;
13704;SDS011;6924;52.122;9.952;2024-02-04T05:21:05;1.60;;;1.40;;
13704;SDS011;6924;52.122;9.952;2024-02-04T05:23:32;2.13;;;1.50;;
13704;SDS011;6924;52.122;9.952;2024-02-04T05:26:02;2.77;;;1.87;;
13704;SDS011;6924;52.122;9.952;2024-02-04T05:28:29;1.80;;;1.70;;
13704;SDS011;6924;52.122;9.952;2024-02-04T05:30:55;2.70;;;1.83;;
13704;SDS011;6924;52.122;9.952;2024-02-04T05:33:23;1.93;;;1.77;;
13704;SDS011;6924;52.122;9.952;2024-02-04T05:35:49;1.90;;;1.77;;
13704;SDS011;6924;52.122;9.952;2024-02-04T05:38:16;1.83;;;1.47;;
13704;SDS011;6924;52.122;9.952;2024-02-04T05:40:42;2.03;;;1.93;;
13704;SDS011;6924;52.122;9.952;2024-02-04T05:43:09;2.03;;;1.80;;
13704;SDS011;6924;52.122;9.952;2024-02-04T05:45:36;2.67;;;2.33;;
13704;SDS011;6924;52.122;9.952;2024-02-04T05:48:04;2.53;;;1.80;;
13704;SDS011;6924;52.122;9.952;2024-02-04T05:50:32;3.40;;;2.33;;
13704;SDS011;6924;52.122;9.952;2024-02-04T05:52:58;1.80;;;1.70;;
13704;SDS011;6924;52.122;9.952;2024-02-04T05:55:24;2.37;;;2.17;;
13704;SDS011;6924;52.122;9.952;2024-02-04T05:57:51;3.47;;;1.93;;
13704;SDS011;6924;52.122;9.952;2024-02-04T06:00:17;2.40;;;1.87;;
13704;SDS011;6924;52.122;9.952;2024-02-04T06:02:44;2.93;;;1.90;;
13704;SDS011;6924;52.122;9.952;2024-02-04T06:05:11;1.57;;;1.47;;
13704;SDS011;6924;52.122;9.952;2024-02-04T06:07:39;2.13;;;1.93;;
13704;SDS011;6924;52.122;9.952;2024-02-04T06:10:08;1.83;;;1.57;;
13704;SDS011;6924;52.122;9.952;2024-02-04T06:12:35;1.57;;;1.40;;
13704;SDS011;6924;52.122;9.952;2024-02-04T06:15:01;1.87;;;1.57;;
13704;SDS011;6924;52.122;9.952;2024-02-04T06:17:27;1.57;;;1.47;;
13704;SDS011;6924;52.122;9.952;2024-02-04T06:19:54;1.70;;;1.60;;
13704;SDS011;6924;52.122;9.952;2024-02-04T06:22:21;3.07;;;1.40;;
13704;SDS011;6924;52.122;9.952;2024-02-04T06:24:51;2.30;;;1.70;;
13704;SDS011;6924;52.122;9.952;2024-02-04T06:27:17;2.30;;;2.10;;
13704;SDS011;6924;52.122;9.952;2024-02-04T06:29:43;2.30;;;1.50;;
13704;SDS011;6924;52.122;9.952;2024-02-04T06:32:10;1.77;;;1.33;;
13704;SDS011;6924;52.122;9.952;2024-02-04T06:34:37;1.40;;;1.30;;
13704;SDS011;6924;52.122;9.952;2024-02-04T06:37:03;2.03;;;1.50;;
13704;SDS011;6924;52.122;9.952;2024-02-04T06:39:30;3.13;;;1.33;;
13704;SDS011;6924;52.122;9.952;2024-02-04T06:41:57;2.60;;;1.80;;
13704;SDS011;6924;52.122;9.952;2024-02-04T06:44:24;2.03;;;1.33;;
13704;SDS011;6924;52.122;9.952;2024-02-04T06:46:50;1.80;;;1.37;;
13704;SDS011;6924;52.122;9.952;2024-02-04T06:49:16;1.47;;;1.37;;
13704;SDS011;6924;52.122;9.952;2024-02-04T06:51:43;2.43;;;1.13;;
13704;SDS011;6924;52.122;9.952;2024-02-04T06:54:10;2.27;;;1.50;;
13704;SDS011;6924;52.122;9.952;2024-02-04T06:56:36;2.67;;;2.47;;
13704;SDS011;6924;52.122;9.952;2024-02-04T06:59:04;1.40;;;1.00;;
13704;SDS011;6924;52.122;9.952;2024-02-04T07:01:30;1.77;;;1.33;;
13704;SDS011;6924;52.122;9.952;2024-02-04T07:03:57;1.10;;;0.90;;
13704;SDS011;6924;52.122;9.952;2024-02-04T07:06:23;0.83;;;0.83;;
13704;SDS011;6924;52.122;9.952;2024-02-04T07:08:49;0.63;;;0.60;;
13704;SDS011;6924;52.122;9.952;2024-02-04T07:11:16;1.37;;;0.90;;
13704;SDS011;6924;52.122;9.952;2024-02-04T07:13:42;1.17;;;0.60;;
13704;SDS011;6924;52.122;9.952;2024-02-04T07:16:10;1.30;;;0.67;;
13704;SDS011;6924;52.122;9.952;2024-02-04T07:18:36;0.73;;;0.70;;
13704;SDS011;6924;52.122;9.952;2024-02-04T07:21:03;0.80;;;0.80;;
13704;SDS011;6924;52.122;9.952;2024-02-04T07:23:29;0.97;;;0.60;;
13704;SDS011;6924;52.122;9.952;2024-02-04T07:25:56;0.50;;;0.50;;
13704;SDS011;6924;52.122;9.952;2024-02-04T07:28:22;1.77;;;0.90;;
13704;SDS011;6924;52.122;9.952;2024-02-04T07:30:49;0.87;;;0.70;;
13704;SDS011;6924;52.122;9.952;2024-02-04T07:33:16;0.90;;;0.80;;
13704;SDS011;6924;52.122;9.952;2024-02-04T07:35:43;0.80;;;0.70;;
13704;SDS011;6924;52.122;9.952;2024-02-04T07:38:09;2.40;;;0.90;;
13704;SDS011;6924;52.122;9.952;2024-02-04T07:40:36;0.73;;;0.70;;
13704;SDS011;6924;52.122;9.952;2024-02-04T07:43:02;0.73;;;0.70;;
13704;SDS011;6924;52.122;9.952;2024-02-04T07:45:29;1.13;;;0.63;;
13704;SDS011;6924;52.122;9.952;2024-02-04T07:47:55;1.60;;;0.70;;
13704;SDS011;6924;52.122;9.952;2024-02-04T07:50:23;0.80;;;0.40;;
13704;SDS011;6924;52.122;9.952;2024-02-04T07:52:49;0.70;;;0.70;;
13704;SDS011;6924;52.122;9.952;2024-02-04T07:55:16;1.03;;;0.70;;
13704;SDS011;6924;52.122;9.952;2024-02-04T07:57:42;0.93;;;0.60;;
13704;SDS011;6924;52.122;9.952;2024-02-04T08:00:09;1.47;;;0.93;;
13704;SDS011;6924;52.122;9.952;2024-02-04T08:02:36;1.03;;;0.50;;
13704;SDS011;6924;52.122;9.952;2024-02-04T08:05:03;0.97;;;0.50;;
13704;SDS011;6924;52.122;9.952;2024-02-04T08:07:31;2.53;;;0.70;;
13704;SDS011;6924;52.122;9.952;2024-02-04T08:09:58;0.50;;;0.50;;
13704;SDS011;6924;52.122;9.952;2024-02-04T08:12:24;0.67;;;0.50;;
13704;SDS011;6924;52.122;9.952;2024-02-04T08:14:50;4.77;;;1.07;;
13704;SDS011;6924;52.122;9.952;2024-02-04T08:17:17;0.93;;;0.63;;
13704;SDS011;6924;52.122;9.952;2024-02-04T08:19:43;1.03;;;0.63;;
13704;SDS011;6924;52.122;9.952;2024-02-04T08:22:09;1.63;;;0.83;;
13704;SDS011;6924;52.122;9.952;2024-02-04T08:24:37;0.60;;;0.50;;
13704;SDS011;6924;52.122;9.952;2024-02-04T08:27:04;0.87;;;0.63;;
13704;SDS011;6924;52.122;9.952;2024-02-04T08:29:30;3.73;;;0.73;;
13704;SDS011;6924;52.122;9.952;2024-02-04T08:31:57;1.23;;;0.77;;
13704;SDS011;6924;52.122;9.952;2024-02-04T08:34:23;1.63;;;0.50;;
13704;SDS011;6924;52.122;9.952;2024-02-04T08:36:50;0.93;;;0.70;;
13704;SDS011;6924;52.122;9.952;2024-02-04T08:39:17;1.10;;;0.50;;
13704;SDS011;6924;52.122;9.952;2024-02-04T08:41:45;3.33;;;0.87;;
13704;SDS011;6924;52.122;9.952;2024-02-04T08:44:11;2.10;;;0.87;;
13704;SDS011;6924;52.122;9.952;2024-02-04T08:46:37;3.17;;;0.80;;
13704;SDS011;6924;52.122;9.952;2024-02-04T08:49:04;1.23;;;0.60;;
13704;SDS011;6924;52.122;9.952;2024-02-04T08:51:30;2.07;;;1.03;;
13704;SDS011;6924;52.122;9.952;2024-02-04T08:53:56;2.47;;;0.70;;
13704;SDS011;6924;52.122;9.952;2024-02-04T08:56:23;1.83;;;0.87;;
13704;SDS011;6924;52.122;9.952;2024-02-04T08:58:50;0.77;;;0.70;;
13704;SDS011;6924;52.122;9.952;2024-02-04T09:01:17;0.80;;;0.60;;
13704;SDS011;6924;52.122;9.952;2024-02-04T09:03:44;1.47;;;1.00;;
13704;SDS011;6924;52.122;9.952;2024-02-04T09:06:10;1.77;;;0.50;;
13704;SDS011;6924;52.122;9.952;2024-02-04T09:08:37;2.63;;;0.90;;
13704;SDS011;6924;52.122;9.952;2024-02-04T09:11:03;2.77;;;0.50;;
13704;SDS011;6924;52.122;9.952;2024-02-04T09:13:30;1.13;;;0.60;;
13704;SDS011;6924;52.122;9.952;2024-02-04T09:15:58;2.17;;;0.87;;
13704;SDS011;6924;52.122;9.952;2024-02-04T09:18:24;1.47;;;0.60;;
13704;SDS011;6924;52.122;9.952;2024-02-04T09:20:50;5.07;;;1.80;;
13704;SDS011;6924;52.122;9.952;2024-02-04T09:23:17;2.20;;;1.17;;
13704;SDS011;6924;52.122;9.952;2024-02-04T09:25:43;3.43;;;0.70;;
13704;SDS011;6924;52.122;9.952;2024-02-04T09:28:10;3.13;;;1.20;;
13704;SDS011;6924;52.122;9.952;2024-02-04T09:30:36;1.90;;;0.80;;
13704;SDS011;6924;52.122;9.952;2024-02-04T09:33:04;2.13;;;0.80;;
13704;SDS011;6924;52.122;9.952;2024-02-04T09:35:31;1.40;;;0.70;;
13704;SDS011;6924;52.122;9.952;2024-02-04T09:37:57;2.63;;;0.93;;
13704;SDS011;6924;52.122;9.952;2024-02-04T09:40:24;3.67;;;0.93;;
13704;SDS011;6924;52.122;9.952;2024-02-04T09:42:50;2.53;;;1.33;;
13704;SDS011;6924;52.122;9.952;2024-02-04T09:45:17;2.83;;;0.90;;
13704;SDS011;6924;52.122;9.952;2024-02-04T09:47:44;4.27;;;0.90;;
13704;SDS011;6924;52.122;9.952;2024-02-04T09:50:13;1.37;;;0.60;;
13704;SDS011;6924;52.122;9.952;2024-02-04T09:52:39;3.33;;;1.33;;
13704;SDS011;6924;52.122;9.952;2024-02-04T09:55:06;2.90;;;0.83;;
13704;SDS011;6924;52.122;9.952;2024-02-04T09:57:35;1.47;;;0.70;;
13704;SDS011;6924;52.122;9.952;2024-02-04T10:00:02;1.70;;;0.70;;
13704;SDS011;6924;52.122;9.952;2024-02-04T10:02:30;3.43;;;1.07;;
13704;SDS011;6924;52.122;9.952;2024-02-04T10:04:58;3.13;;;1.00;;
13704;SDS011;6924;52.122;9.952;2024-02-04T10:07:26;1.87;;;1.77;;
13704;SDS011;6924;52.122;9.952;2024-02-04T10:09:52;3.10;;;1.00;;
13704;SDS011;6924;52.122;9.952;2024-02-04T10:12:18;3.40;;;1.00;;
13704;SDS011;6924;52.122;9.952;2024-02-04T10:14:45;2.87;;;0.83;;
13704;SDS011;6924;52.122;9.952;2024-02-04T10:17:13;3.50;;;1.03;;
13704;SDS011;6924;52.122;9.952;2024-02-04T10:19:41;2.37;;;0.70;;
13704;SDS011;6924;52.122;9.952;2024-02-04T10:22:07;1.90;;;0.70;;
13704;SDS011;6924;52.122;9.952;2024-02-04T10:24:35;1.53;;;1.17;;
13704;SDS011;6924;52.122;9.952;2024-02-04T10:27:01;1.90;;;0.90;;
13704;SDS011;6924;52.122;9.952;2024-02-04T10:29:28;3.00;;;1.00;;
13704;SDS011;6924;52.122;9.952;2024-02-04T10:31:55;1.70;;;0.73;;
13704;SDS011;6924;52.122;9.952;2024-02-04T10:34:22;3.63;;;0.70;;
13704;SDS011;6924;52.122;9.952;2024-02-04T10:36:49;2.67;;;0.70;;
13704;SDS011;6924;52.122;9.952;2024-02-04T10:39:15;2.60;;;0.60;;
13704;SDS011;6924;52.122;9.952;2024-02-04T10:41:49;2.07;;;1.03;;
13704;SDS011;6924;52.122;9.952;2024-02-04T10:44:19;0.87;;;0.50;;
13704;SDS011;6924;52.122;9.952;2024-02-04T10:46:47;3.27;;;0.90;;
13704;SDS011;6924;52.122;9.952;2024-02-04T10:49:15;2.00;;;0.83;;
13704;SDS011;6924;52.122;9.952;2024-02-04T10:51:45;2.17;;;0.77;;
13704;SDS011;6924;52.122;9.952;2024-02-04T10:54:12;1.10;;;0.53;;
13704;SDS011;6924;52.122;9.952;2024-02-04T10:56:42;1.63;;;0.70;;
13704;SDS011;6924;52.122;9.952;2024-02-04T10:59:10;2.60;;;0.60;;
13704;SDS011;6924;52.122;9.952;2024-02-04T11:01:38;3.33;;;0.80;;
13704;SDS011;6924;52.122;9.952;2024-02-04T11:04:05;4.57;;;1.07;;
13704;SDS011;6924;52.122;9.952;2024-02-04T11:06:32;2.50;;;0.60;;
13704;SDS011;6924;52.122;9.952;2024-02-04T11:08:59;2.27;;;1.00;;
13704;SDS011;6924;52.122;9.952;2024-02-04T11:11:28;3.13;;;1.03;;
13704;SDS011;6924;52.122;9.952;2024-02-04T11:13:57;1.87;;;0.63;;
13704;SDS011;6924;52.122;9.952;2024-02-04T11:16:34;2.20;;;0.77;;
13704;SDS011;6924;52.122;9.952;2024-02-04T11:19:20;0.97;;;0.50;;
13704;SDS011;6924;52.122;9.952;2024-02-04T11:22:03;3.70;;;0.73;;
13704;SDS011;6924;52.122;9.952;2024-02-04T11:24:51;0.90;;;0.40;;
13704;SDS011;6924;52.122;9.952;2024-02-04T11:27:25;1.30;;;0.50;;
13704;SDS011;6924;52.122;9.952;2024-02-04T11:29:54;2.87;;;0.73;;
13704;SDS011;6924;52.122;9.952;2024-02-04T11:32:21;1.53;;;0.80;;
13704;SDS011;6924;52.122;9.952;2024-02-04T11:34:47;3.87;;;1.07;;
13704;SDS011;6924;52.122;9.952;2024-02-04T11:37:15;1.10;;;0.50;;
13704;SDS011;6924;52.122;9.952;2024-02-04T11:39:47;1.83;;;0.67;;
13704;SDS011;6924;52.122;9.952;2024-02-04T11:42:14;0.80;;;0.40;;
13704;SDS011;6924;52.122;9.952;2024-02-04T11:44:41;1.57;;;0.60;;
13704;SDS011;6924;52.122;9.952;2024-02-04T11:47:08;1.17;;;0.60;;
13704;SDS011;6924;52.122;9.952;2024-02-04T11:49:35;3.60;;;1.43;;
13704;SDS011;6924;52.122;9.952;2024-02-04T11:52:01;4.63;;;0.70;;
13704;SDS011;6924;52.122;9.952;2024-02-04T11:54:28;1.00;;;0.90;;
13704;SDS011;6924;52.122;9.952;2024-02-04T11:56:56;0.60;;;0.50;;
13704;SDS011;6924;52.122;9.952;2024-02-04T11:59:23;1.57;;;0.50;;
13704;SDS011;6924;52.122;9.952;2024-02-04T12:01:53;4.70;;;0.40;;
13704;SDS011;6924;52.122;9.952;2024-02-04T12:04:21;1.83;;;0.50;;
13704;SDS011;6924;52.122;9.952;2024-02-04T12:06:48;1.40;;;0.60;;
13704;SDS011;6924;52.122;9.952;2024-02-04T12:09:16;0.80;;;0.67;;
13704;SDS011;6924;52.122;9.952;2024-02-04T12:11:43;2.73;;;0.50;;
13704;SDS011;6924;52.122;9.952;2024-02-04T12:14:10;1.53;;;0.50;;
13704;SDS011;6924;52.122;9.952;2024-02-04T12:16:37;2.53;;;0.60;;
13704;SDS011;6924;52.122;9.952;2024-02-04T12:19:05;1.23;;;0.60;;
13704;SDS011;6924;52.122;9.952;2024-02-04T12:21:32;2.03;;;0.50;;
13704;SDS011;6924;52.122;9.952;2024-02-04T12:24:01;2.20;;;0.40;;
13704;SDS011;6924;52.122;9.952;2024-02-04T12:26:27;2.43;;;2.43;;
13704;SDS011;6924;52.122;9.952;2024-02-04T12:28:54;0.90;;;0.57;;
13704;SDS011;6924;52.122;9.952;2024-02-04T12:31:24;5.53;;;0.67;;
13704;SDS011;6924;52.122;9.952;2024-02-04T12:33:54;2.90;;;0.50;;
13704;SDS011;6924;52.122;9.952;2024-02-04T12:36:22;0.60;;;0.40;;
13704;SDS011;6924;52.122;9.952;2024-02-04T12:38:54;1.83;;;0.60;;
13704;SDS011;6924;52.122;9.952;2024-02-04T12:41:21;1.63;;;0.70;;
13704;SDS011;6924;52.122;9.952;2024-02-04T12:43:51;0.77;;;0.63;;
13704;SDS011;6924;52.122;9.952;2024-02-04T12:46:19;1.07;;;0.70;;
13704;SDS011;6924;52.122;9.952;2024-02-04T12:48:50;1.00;;;0.50;;
13704;SDS011;6924;52.122;9.952;2024-02-04T12:51:22;1.47;;;0.57;;
13704;SDS011;6924;52.122;9.952;2024-02-04T12:53:49;5.20;;;5.00;;
13704;SDS011;6924;52.122;9.952;2024-02-04T12:56:17;0.80;;;0.60;;
13704;SDS011;6924;52.122;9.952;2024-02-04T12:58:44;0.90;;;0.50;;
13704;SDS011;6924;52.122;9.952;2024-02-04T13:01:10;3.20;;;0.70;;
13704;SDS011;6924;52.122;9.952;2024-02-04T13:03:36;2.13;;;0.63;;
13704;SDS011;6924;52.122;9.952;2024-02-04T13:06:03;1.13;;;0.60;;
13704;SDS011;6924;52.122;9.952;2024-02-04T13:08:30;0.50;;;0.50;;
13704;SDS011;6924;52.122;9.952;2024-02-04T13:10:57;2.17;;;0.70;;
13704;SDS011;6924;52.122;9.952;2024-02-04T13:13:24;1.77;;;1.33;;
13704;SDS011;6924;52.122;9.952;2024-02-04T13:15:52;1.30;;;0.90;;
13704;SDS011;6924;52.122;9.952;2024-02-04T13:18:19;1.63;;;0.70;;
13704;SDS011;6924;52.122;9.952;2024-02-04T13:20:45;0.57;;;0.53;;
13704;SDS011;6924;52.122;9.952;2024-02-04T13:23:12;2.30;;;0.80;;
13704;SDS011;6924;52.122;9.952;2024-02-04T13:25:38;0.70;;;0.70;;
13704;SDS011;6924;52.122;9.952;2024-02-04T13:28:05;2.33;;;0.90;;
13704;SDS011;6924;52.122;9.952;2024-02-04T13:30:33;1.80;;;0.73;;
13704;SDS011;6924;52.122;9.952;2024-02-04T13:32:59;3.13;;;0.73;;
13704;SDS011;6924;52.122;9.952;2024-02-04T13:35:27;1.80;;;0.73;;
13704;SDS011;6924;52.122;9.952;2024-02-04T13:37:53;3.40;;;0.97;;
13704;SDS011;6924;52.122;9.952;2024-02-04T13:40:21;2.57;;;1.00;;
13704;SDS011;6924;52.122;9.952;2024-02-04T13:42:49;1.30;;;1.10;;
13704;SDS011;6924;52.122;9.952;2024-02-04T13:45:16;2.70;;;0.97;;
13704;SDS011;6924;52.122;9.952;2024-02-04T13:47:43;3.77;;;1.33;;
13704;SDS011;6924;52.122;9.952;2024-02-04T13:50:10;2.17;;;0.97;;
13704;SDS011;6924;52.122;9.952;2024-02-04T13:52:37;1.60;;;0.90;;
13704;SDS011;6924;52.122;9.952;2024-02-04T13:55:04;1.70;;;1.60;;
13704;SDS011;6924;52.122;9.952;2024-02-04T13:57:32;1.57;;;1.10;;
13704;SDS011;6924;52.122;9.952;2024-02-04T13:59:58;2.63;;;1.40;;
13704;SDS011;6924;52.122;9.952;2024-02-04T14:02:24;2.63;;;1.60;;
13704;SDS011;6924;52.122;9.952;2024-02-04T14:04:55;1.20;;;1.10;;
13704;SDS011;6924;52.122;9.952;2024-02-04T14:07:22;1.40;;;1.30;;
13704;SDS011;6924;52.122;9.952;2024-02-04T14:09:48;1.73;;;0.90;;
13704;SDS011;6924;52.122;9.952;2024-02-04T14:12:15;1.30;;;1.20;;
13704;SDS011;6924;52.122;9.952;2024-02-04T14:14:41;3.70;;;1.30;;
13704;SDS011;6924;52.122;9.952;2024-02-04T14:17:08;5.97;;;1.17;;
13704;SDS011;6924;52.122;9.952;2024-02-04T14:19:35;1.50;;;1.03;;
13704;SDS011;6924;52.122;9.952;2024-02-04T14:22:03;1.57;;;1.17;;
13704;SDS011;6924;52.122;9.952;2024-02-04T14:24:29;1.73;;;1.30;;
13704;SDS011;6924;52.122;9.952;2024-02-04T14:26:56;1.60;;;1.00;;
13704;SDS011;6924;52.122;9.952;2024-02-04T14:29:23;2.37;;;2.17;;
13704;SDS011;6924;52.122;9.952;2024-02-04T14:31:50;1.27;;;1.17;;
13704;SDS011;6924;52.122;9.952;2024-02-04T14:34:16;1.70;;;1.17;;
13704;SDS011;6924;52.122;9.952;2024-02-04T14:36:43;3.43;;;1.20;;
13704;SDS011;6924;52.122;9.952;2024-02-04T14:39:10;1.53;;;1.37;;
13704;SDS011;6924;52.122;9.952;2024-02-04T14:41:37;1.80;;;1.37;;
13704;SDS011;6924;52.122;9.952;2024-02-04T14:44:03;3.53;;;1.10;;
13704;SDS011;6924;52.122;9.952;2024-02-04T14:46:30;1.23;;;1.10;;
13704;SDS011;6924;52.122;9.952;2024-02-04T14:48:56;3.03;;;1.50;;
13704;SDS011;6924;52.122;9.952;2024-02-04T14:51:23;1.27;;;1.17;;
13704;SDS011;6924;52.122;9.952;2024-02-04T14:53:49;1.10;;;1.00;;
13704;SDS011;6924;52.122;9.952;2024-02-04T14:56:17;2.40;;;1.20;;
13704;SDS011;6924;52.122;9.952;2024-02-04T14:58:43;4.30;;;1.50;;
13704;SDS011;6924;52.122;9.952;2024-02-04T15:01:10;1.80;;;1.50;;